Calgary, Canada
Current Conditions -  °F | °C
As of 5:21 PM on Friday 28 Nov 2014 (Local Time) from CYYC Reporting Station
Light Snow Light Snow  
Wind Chill: -33°   Ceiling: 300
Heat Index: -21°   Visibility: 0.75mi
Dew Point: -24°   Wind: 15mph
Humidity: 77%   Direction: 350°N
Pressure: 29.67"   Gusts: NA
Location:  51.05°N, 114.06°W
Report Text: CYYC 290021Z 35013KT 3/4SM R35L/4500FT/N R35R/3500FT/N R11/2400FT/N -SN BKN003 OVC011 M21/M24 A2967 RMK SC5SC3 PRESRR SLP148
Loading
Personal Weather Stations






























Interactive Weather Map New forecast layout! Learn more

10-Day Weather Forecast

Advertisements
Track Severe Weather on mobile